createdAt,value
2023-04-15T00:00:56.585Z,25.00
2023-04-15T00:01:56.667Z,25.00
2023-04-15T00:02:56.762Z,25.00
2023-04-15T00:03:56.648Z,21.18
2023-04-15T00:04:56.559Z,25.00
2023-04-15T00:05:56.554Z,24.61
2023-04-15T00:06:56.537Z,24.68
2023-04-15T00:07:56.527Z,25.28
2023-04-15T00:08:56.525Z,25.00
2023-04-15T00:09:56.517Z,25.00
2023-04-15T00:10:56.553Z,25.68
2023-04-15T00:11:56.506Z,25.00
2023-04-15T00:12:56.506Z,26.37
2023-04-15T00:13:56.493Z,25.00
2023-04-15T00:14:56.486Z,25.92
2023-04-15T00:15:56.473Z,25.00
2023-04-15T00:16:56.549Z,26.54
2023-04-15T00:17:56.490Z,25.00
2023-04-15T00:18:56.449Z,26.17
2023-04-15T00:19:56.448Z,26.95
2023-04-15T00:20:56.441Z,26.60
2023-04-15T00:21:56.437Z,26.99
2023-04-15T00:22:56.427Z,29.11
2023-04-15T00:23:56.420Z,27.26
2023-04-15T00:24:56.411Z,26.10
2023-04-15T00:25:56.405Z,25.00
2023-04-15T00:26:56.431Z,27.61
2023-04-15T00:27:56.396Z,27.46
2023-04-15T00:28:56.394Z,28.82
2023-04-15T00:29:56.384Z,26.12
2023-04-15T00:30:56.419Z,25.44
2023-04-15T00:31:56.373Z,25.00
2023-04-15T00:32:56.454Z,25.18
2023-04-15T00:33:56.362Z,27.02
2023-04-15T00:34:56.363Z,25.90
2023-04-15T00:35:56.351Z,26.37
2023-04-15T00:36:56.343Z,26.61
2023-04-15T00:37:56.329Z,25.00
2023-04-15T00:38:56.329Z,26.97
2023-04-15T00:39:56.317Z,28.31
2023-04-15T00:40:56.317Z,28.19
2023-04-15T00:41:56.315Z,25.70
2023-04-15T00:42:56.339Z,26.25
2023-04-15T00:43:56.298Z,26.98
2023-04-15T00:44:56.286Z,27.39
2023-04-15T00:45:56.286Z,27.81
2023-04-15T00:46:56.275Z,28.47
2023-04-15T00:47:56.337Z,26.80
2023-04-15T00:48:56.263Z,30.33
2023-04-15T00:49:56.258Z,27.05
2023-04-15T00:50:56.249Z,26.60
2023-04-15T00:51:56.236Z,27.70
2023-04-15T00:52:56.230Z,26.32
2023-04-15T00:53:56.218Z,27.15
2023-04-15T00:54:56.218Z,28.67
2023-04-15T00:55:56.220Z,27.49
2023-04-15T00:56:56.210Z,27.02
2023-04-15T00:57:56.196Z,29.28
2023-04-15T00:58:56.219Z,27.08
2023-04-15T00:59:56.242Z,25.00
2023-04-15T01:00:56.201Z,29.25
2023-04-15T01:01:56.308Z,29.43
2023-04-15T01:02:56.322Z,27.37
2023-04-15T01:03:56.358Z,25.00
2023-04-15T01:04:56.160Z,27.67
2023-04-15T01:05:56.149Z,27.93
2023-04-15T01:06:56.145Z,27.16
2023-04-15T01:07:56.141Z,26.45
2023-04-15T01:08:56.124Z,26.93
2023-04-15T01:09:56.120Z,26.46
2023-04-15T01:10:56.116Z,28.46
2023-04-15T01:11:56.115Z,26.86
2023-04-15T01:12:56.107Z,26.94
2023-04-15T01:13:56.106Z,27.42
2023-04-15T01:14:56.143Z,26.17
2023-04-15T01:15:56.112Z,29.16
2023-04-15T01:16:56.077Z,25.19
2023-04-15T01:17:56.095Z,27.40
2023-04-15T01:18:56.071Z,25.98
2023-04-15T01:19:56.589Z,27.68
2023-04-15T01:20:56.580Z,26.98
2023-04-15T01:21:56.059Z,27.55
2023-04-15T01:22:56.081Z,28.47
2023-04-15T01:23:56.075Z,25.28
2023-04-15T01:24:56.086Z,27.75
2023-04-15T01:25:56.099Z,27.60
2023-04-15T01:26:56.106Z,26.36
2023-04-15T01:27:56.128Z,29.10
2023-04-15T01:28:56.135Z,29.27
2023-04-15T01:29:56.147Z,27.34
2023-04-15T01:30:56.181Z,28.17
2023-04-15T01:31:56.287Z,29.13
2023-04-15T01:32:56.225Z,27.27
2023-04-15T01:33:56.188Z,28.50
2023-04-15T01:34:56.191Z,27.07
2023-04-15T01:35:56.199Z,26.58
2023-04-15T01:36:56.219Z,29.26
2023-04-15T01:37:56.215Z,30.40
2023-04-15T01:38:56.223Z,29.98
2023-04-15T01:39:56.237Z,29.86
2023-04-15T01:40:56.252Z,27.36
2023-04-15T01:41:56.280Z,28.67
2023-04-15T01:42:56.302Z,28.16
2023-04-15T01:43:56.306Z,27.94
2023-04-15T01:44:56.303Z,25.78
2023-04-15T01:45:56.296Z,27.99
2023-04-15T01:46:56.458Z,27.47
2023-04-15T01:47:56.361Z,28.51
2023-04-15T01:48:56.329Z,28.76
2023-04-15T01:49:56.339Z,26.13
2023-04-15T01:50:56.345Z,25.01
2023-04-15T01:51:56.341Z,27.59
2023-04-15T01:52:56.352Z,27.71
2023-04-15T01:53:56.354Z,27.27
2023-04-15T01:54:56.363Z,28.65
2023-04-15T01:55:56.368Z,29.01
2023-04-15T01:56:56.381Z,28.13
2023-04-15T01:57:56.400Z,27.62
2023-04-15T01:58:56.404Z,30.08
2023-04-15T01:59:56.422Z,28.22
2023-04-15T02:00:56.461Z,28.67
2023-04-15T02:01:56.552Z,29.39
2023-04-15T02:02:56.562Z,29.90
2023-04-15T02:03:56.503Z,25.92
2023-04-15T02:04:56.493Z,27.71
2023-04-15T02:05:56.497Z,26.47
2023-04-15T02:06:56.517Z,27.85
2023-04-15T02:07:56.533Z,26.32
2023-04-15T02:08:56.538Z,25.48
2023-04-15T02:09:56.561Z,25.98
2023-04-15T02:10:56.584Z,28.92
2023-04-15T02:11:56.614Z,25.69
2023-04-15T02:12:56.633Z,25.48
2023-04-15T02:13:56.616Z,26.01
2023-04-15T02:14:56.648Z,26.67
2023-04-15T02:15:56.644Z,27.13
2023-04-15T02:16:56.816Z,30.30
2023-04-15T02:17:56.723Z,26.24
2023-04-15T02:18:56.775Z,26.88
2023-04-15T02:19:56.689Z,27.61
2023-04-15T02:20:56.714Z,28.22
2023-04-15T02:21:56.703Z,25.00
2023-04-15T02:22:56.716Z,28.47
2023-04-15T02:23:56.720Z,28.27
2023-04-15T02:24:56.747Z,26.77
2023-04-15T02:25:56.760Z,26.70
2023-04-15T02:26:56.773Z,29.11
2023-04-15T02:27:56.779Z,25.92
2023-04-15T02:28:56.794Z,27.23
2023-04-15T02:29:56.813Z,29.28
2023-04-15T02:30:56.818Z,28.51
2023-04-15T02:31:56.905Z,28.39
2023-04-15T02:32:56.896Z,27.36
2023-04-15T02:33:56.855Z,26.50
2023-04-15T02:34:56.889Z,28.71
2023-04-15T02:35:56.883Z,28.17
2023-04-15T02:36:56.890Z,31.34
2023-04-15T02:37:56.889Z,26.06
2023-04-15T02:38:56.888Z,30.09
2023-04-15T02:39:56.900Z,30.07
2023-04-15T02:40:56.911Z,29.41
2023-04-15T02:41:56.918Z,29.93
2023-04-15T02:42:56.929Z,30.18
2023-04-15T02:43:56.949Z,26.58
2023-04-15T02:44:56.952Z,27.85
2023-04-15T02:45:56.994Z,27.01
2023-04-15T02:46:56.978Z,28.48
2023-04-15T02:47:57.652Z,26.38
2023-04-15T02:48:56.974Z,28.07
2023-04-15T02:49:56.979Z,28.51
2023-04-15T02:50:57.014Z,27.29
2023-04-15T02:51:56.990Z,27.17
2023-04-15T02:52:57.009Z,30.09
2023-04-15T02:53:57.017Z,26.91
2023-04-15T02:54:57.047Z,30.98
2023-04-15T02:55:57.054Z,28.76
2023-04-15T02:56:57.063Z,26.94
2023-04-15T02:57:57.079Z,26.86
2023-04-15T02:58:57.091Z,25.79
2023-04-15T02:59:57.103Z,27.88
2023-04-15T03:00:57.120Z,29.36
2023-04-15T03:01:57.148Z,29.25
2023-04-15T03:02:57.244Z,30.02
2023-04-15T03:03:57.222Z,28.53
2023-04-15T03:04:57.169Z,30.00
2023-04-15T03:05:57.180Z,29.11
2023-04-15T03:06:57.236Z,29.48
2023-04-15T03:07:57.192Z,28.01
2023-04-15T03:08:57.226Z,27.93
2023-04-15T03:09:57.221Z,29.05
2023-04-15T03:10:57.222Z,29.67
2023-04-15T03:11:57.232Z,29.71
2023-04-15T03:12:57.258Z,28.83
2023-04-15T03:13:57.261Z,28.00
2023-04-15T03:14:57.257Z,27.84
2023-04-15T03:15:57.303Z,26.95
2023-04-15T03:16:57.275Z,29.27
2023-04-15T03:17:57.401Z,28.81
2023-04-15T03:18:57.298Z,28.84
2023-04-15T03:19:57.332Z,29.06
2023-04-15T03:20:57.303Z,26.65
2023-04-15T03:21:57.319Z,28.64
2023-04-15T03:22:57.356Z,28.75
2023-04-15T03:23:57.325Z,28.67
2023-04-15T03:24:57.353Z,26.09
2023-04-15T03:25:57.374Z,28.55
2023-04-15T03:26:57.374Z,28.75
2023-04-15T03:27:57.392Z,28.55
2023-04-15T03:28:57.447Z,29.38
2023-04-15T03:29:57.441Z,30.88
2023-04-15T03:30:57.449Z,28.14
2023-04-15T03:31:57.446Z,31.43
2023-04-15T03:32:57.485Z,29.48
2023-04-15T03:33:57.470Z,32.28
2023-04-15T03:34:57.468Z,30.11
2023-04-15T03:35:57.484Z,29.05
2023-04-15T03:36:57.473Z,28.20
2023-04-15T03:37:57.470Z,28.12
2023-04-15T03:38:57.507Z,26.51
2023-04-15T03:39:57.499Z,29.67
2023-04-15T03:40:57.517Z,31.28
2023-04-15T03:41:57.535Z,30.12
2023-04-15T03:42:57.540Z,29.63
2023-04-15T03:43:57.552Z,27.91
2023-04-15T03:44:57.595Z,30.74
2023-04-15T03:45:57.599Z,33.02
2023-04-15T03:46:57.599Z,28.75
2023-04-15T03:48:07.290Z,29.53
2023-04-15T03:48:57.606Z,29.87
2023-04-15T03:49:57.617Z,30.70
2023-04-15T03:50:57.583Z,31.05
2023-04-15T03:51:57.589Z,32.45
2023-04-15T03:52:57.562Z,33.72
2023-04-15T03:53:57.562Z,31.67
2023-04-15T03:54:57.577Z,30.50
2023-04-15T03:55:57.570Z,30.15
2023-04-15T03:56:57.544Z,30.02
2023-04-15T03:57:57.539Z,29.71
2023-04-15T03:58:57.532Z,29.91
2023-04-15T03:59:57.525Z,31.03
2023-04-15T04:00:57.512Z,31.97
2023-04-15T04:01:57.629Z,32.91
2023-04-15T04:02:57.801Z,30.78
2023-04-15T04:03:57.681Z,31.78
2023-04-15T04:04:57.490Z,29.90
2023-04-15T04:05:57.480Z,31.46
2023-04-15T04:06:57.483Z,31.00
2023-04-15T04:07:57.465Z,30.49
2023-04-15T04:08:57.466Z,31.68
2023-04-15T04:09:57.457Z,30.24
2023-04-15T04:10:57.500Z,30.61
2023-04-15T04:11:57.448Z,31.22
2023-04-15T04:12:57.451Z,32.49
2023-04-15T04:13:57.439Z,31.19
2023-04-15T04:14:57.440Z,31.58
2023-04-15T04:15:57.450Z,32.03
2023-04-15T04:16:57.498Z,32.27
2023-04-15T04:17:57.457Z,30.08
2023-04-15T04:18:57.405Z,31.16
2023-04-15T04:19:57.408Z,30.60
2023-04-15T04:20:57.389Z,28.83
2023-04-15T04:21:57.393Z,31.24
2023-04-15T04:22:57.380Z,30.23
2023-04-15T04:23:57.380Z,29.57
2023-04-15T04:24:57.372Z,32.03
2023-04-15T04:25:57.370Z,31.05
2023-04-15T04:26:57.472Z,29.44
2023-04-15T04:27:57.350Z,30.28
2023-04-15T04:28:57.341Z,31.69
2023-04-15T04:29:57.339Z,30.82
2023-04-15T04:30:57.328Z,29.17
2023-04-15T04:31:57.345Z,30.99
2023-04-15T04:32:57.374Z,31.05
2023-04-15T04:33:57.325Z,31.64
2023-04-15T04:34:57.296Z,30.11
2023-04-15T04:35:57.294Z,30.33
2023-04-15T04:36:58.156Z,30.70
2023-04-15T04:37:57.281Z,33.82
2023-04-15T04:38:57.289Z,30.57
2023-04-15T04:39:57.259Z,28.24
2023-04-15T04:40:57.266Z,31.65
2023-04-15T04:41:57.256Z,30.09
2023-04-15T04:42:57.265Z,31.59
2023-04-15T04:43:57.244Z,30.36
2023-04-15T04:44:57.224Z,29.33
2023-04-15T04:45:57.257Z,31.63
2023-04-15T04:46:57.207Z,28.00
2023-04-15T04:47:57.253Z,28.07
2023-04-15T04:48:57.214Z,30.37
2023-04-15T04:49:57.200Z,30.25
2023-04-15T04:50:57.191Z,30.23
2023-04-15T04:51:57.185Z,28.24
2023-04-15T04:52:57.176Z,28.50
2023-04-15T04:53:57.169Z,29.43
2023-04-15T04:54:57.162Z,29.23
2023-04-15T04:55:57.155Z,28.39
2023-04-15T04:56:57.148Z,27.34
2023-04-15T04:57:57.140Z,28.69
2023-04-15T04:58:57.157Z,28.84
2023-04-15T04:59:57.122Z,30.33
2023-04-15T05:00:57.170Z,29.47
2023-04-15T05:01:57.200Z,26.87
2023-04-15T05:02:57.241Z,27.00
2023-04-15T05:03:57.222Z,28.39
2023-04-15T05:04:57.097Z,29.38
2023-04-15T05:05:57.094Z,30.13
2023-04-15T05:06:57.083Z,32.02
2023-04-15T05:07:57.081Z,30.65
2023-04-15T05:08:57.070Z,29.60
2023-04-15T05:09:57.065Z,29.13
2023-04-15T05:10:57.064Z,27.49
2023-04-15T05:11:57.070Z,27.59
2023-04-15T05:12:57.078Z,28.54
2023-04-15T05:13:57.102Z,29.33
2023-04-15T05:14:57.147Z,29.02
2023-04-15T05:15:57.213Z,27.91
2023-04-15T05:16:57.175Z,28.84
2023-04-15T05:17:57.209Z,26.69
2023-04-15T05:18:57.191Z,28.43
2023-04-15T05:19:57.206Z,30.92
2023-04-15T05:20:57.226Z,30.11
2023-04-15T05:21:57.239Z,29.02
2023-04-15T05:22:57.250Z,28.46
2023-04-15T05:23:57.266Z,28.47
2023-04-15T05:24:57.289Z,28.69
2023-04-15T05:25:57.313Z,29.71
2023-04-15T05:26:57.346Z,28.19
2023-04-15T05:27:57.352Z,28.44
2023-04-15T05:28:57.371Z,27.10
2023-04-15T05:29:57.389Z,29.81
2023-04-15T05:30:57.437Z,29.55
2023-04-15T05:31:57.394Z,27.09
2023-04-15T05:32:57.455Z,28.90
2023-04-15T05:33:57.436Z,27.18
2023-04-15T05:34:57.452Z,29.84
2023-04-15T05:35:57.457Z,28.08
2023-04-15T05:36:57.458Z,28.77
2023-04-15T05:37:57.457Z,28.17
2023-04-15T05:38:57.465Z,29.92
2023-04-15T05:39:57.453Z,27.32
2023-04-15T05:40:57.450Z,27.37
2023-04-15T05:41:57.466Z,28.50
2023-04-15T05:42:57.486Z,27.24
2023-04-15T05:43:57.493Z,27.93
2023-04-15T05:44:57.497Z,28.59
2023-04-15T05:45:57.584Z,29.66
2023-04-15T05:46:57.565Z,28.50
2023-04-15T05:47:57.597Z,29.66
2023-04-15T05:48:57.599Z,28.24
2023-04-15T05:49:57.599Z,30.96
2023-04-15T05:50:57.634Z,28.99
2023-04-15T05:51:57.654Z,30.30
2023-04-15T05:52:57.669Z,29.87
2023-04-15T05:53:57.701Z,28.29
2023-04-15T05:54:57.703Z,25.51
2023-04-15T05:55:57.725Z,7.94
2023-04-15T05:56:57.816Z,3.36
2023-04-15T05:57:57.817Z,24.68
2023-04-15T05:58:57.831Z,29.08
2023-04-15T05:59:58.197Z,34.77
2023-04-15T06:00:57.921Z,42.43
2023-04-15T06:01:58.019Z,47.22
2023-04-15T06:02:58.147Z,54.03
2023-04-15T06:03:58.149Z,56.59
2023-04-15T06:04:58.203Z,61.30
2023-04-15T06:05:58.197Z,68.97
2023-04-15T06:06:58.238Z,75.69
2023-04-15T06:07:58.261Z,80.27
2023-04-15T06:08:58.270Z,89.12
2023-04-15T06:09:58.284Z,100.90
2023-04-15T06:10:58.283Z,113.28
2023-04-15T06:11:58.313Z,122.44
2023-04-15T06:12:58.367Z,137.29
2023-04-15T06:13:58.426Z,147.31
2023-04-15T06:15:00.093Z,155.31
2023-04-15T06:15:58.539Z,160.57
2023-04-15T06:16:58.482Z,158.23
2023-04-15T06:17:58.520Z,159.69
2023-04-15T06:18:58.604Z,162.45
2023-04-15T06:19:58.456Z,167.18
2023-04-15T06:20:58.453Z,170.76
2023-04-15T06:21:58.443Z,170.18
2023-04-15T06:22:58.440Z,175.50
2023-04-15T06:23:58.430Z,174.81
2023-04-15T06:24:58.429Z,178.53
2023-04-15T06:25:58.421Z,183.21
2023-04-15T06:26:58.416Z,188.06
2023-04-15T06:27:58.413Z,189.68
2023-04-15T06:28:58.448Z,196.68
2023-04-15T06:29:58.404Z,198.30
2023-04-15T06:30:58.395Z,201.37
2023-04-15T06:31:58.441Z,205.60
2023-04-15T06:32:58.418Z,212.02
2023-04-15T06:33:58.370Z,211.38
2023-04-15T06:34:58.388Z,217.16
2023-04-15T06:35:58.362Z,221.25
2023-04-15T06:36:58.355Z,225.06
2023-04-15T06:37:58.355Z,226.82
2023-04-15T06:38:58.354Z,231.62
2023-04-15T06:39:58.338Z,234.85
2023-04-15T06:40:58.317Z,240.63
2023-04-15T06:41:58.320Z,240.73
2023-04-15T06:42:58.325Z,242.22
2023-04-15T06:43:58.297Z,246.73
2023-04-15T06:44:58.292Z,248.82
2023-04-15T06:45:58.389Z,246.51
2023-04-15T06:46:58.277Z,247.60
2023-04-15T06:47:58.331Z,248.18
2023-04-15T06:48:58.272Z,248.29
2023-04-15T06:49:58.285Z,249.55
2023-04-15T06:50:58.314Z,248.79
2023-04-15T06:51:58.259Z,250.00
2023-04-15T06:52:58.246Z,248.56
2023-04-15T06:53:58.249Z,250.00
2023-04-15T06:54:58.228Z,249.46
2023-04-15T06:55:58.220Z,248.41
2023-04-15T06:56:58.217Z,245.83
2023-04-15T06:57:58.210Z,248.60
2023-04-15T06:58:58.203Z,249.25
2023-04-15T06:59:58.195Z,247.99
2023-04-15T07:00:58.228Z,245.84
2023-04-15T07:01:58.203Z,247.47
2023-04-15T07:02:58.206Z,247.69
2023-04-15T07:03:58.177Z,248.58
2023-04-15T07:04:58.162Z,247.66
2023-04-15T07:05:58.151Z,250.00
2023-04-15T07:06:58.205Z,246.57
2023-04-15T07:07:58.245Z,248.34
2023-04-15T07:08:58.307Z,249.47
2023-04-15T07:09:58.341Z,247.61
2023-04-15T07:10:58.379Z,247.66
2023-04-15T07:11:58.396Z,245.96
2023-04-15T07:12:58.409Z,240.12
2023-04-15T07:13:58.413Z,241.65
2023-04-15T07:14:58.421Z,238.84
2023-04-15T07:15:58.426Z,228.24
2023-04-15T07:16:58.489Z,216.24
2023-04-15T07:17:58.460Z,118.18
2023-04-15T07:18:58.451Z,30.84
2023-04-15T07:19:58.491Z,3.34
2023-04-15T07:20:58.533Z,12.47
2023-04-15T07:21:58.555Z,0.18
2023-04-15T07:22:58.594Z,0.78
2023-04-15T07:23:58.603Z,1.70
2023-04-15T07:24:58.680Z,9.27
2023-04-15T07:26:05.629Z,17.12
2023-04-15T07:27:00.326Z,17.17
2023-04-15T07:27:58.677Z,17.45
2023-04-15T07:28:58.717Z,18.62
2023-04-15T07:29:58.670Z,19.99
2023-04-15T07:30:58.712Z,28.35
2023-04-15T07:31:58.659Z,37.24
2023-04-15T07:32:58.677Z,42.53
2023-04-15T07:33:58.697Z,44.10
2023-04-15T07:34:58.638Z,46.56
2023-04-15T07:35:58.637Z,46.36
2023-04-15T07:36:58.622Z,51.02
2023-04-15T07:37:58.615Z,57.87
2023-04-15T07:38:58.634Z,65.77
2023-04-15T07:39:58.608Z,72.20
2023-04-15T07:40:58.611Z,79.83
2023-04-15T07:41:58.597Z,86.17
2023-04-15T07:42:58.606Z,93.18
2023-04-15T07:43:58.581Z,99.94
2023-04-15T07:44:58.566Z,100.85
2023-04-15T07:45:58.592Z,102.37
2023-04-15T07:46:58.567Z,106.20
2023-04-15T07:47:57.624Z,111.11
2023-04-15T07:48:58.548Z,112.72
2023-04-15T07:49:58.542Z,113.95
2023-04-15T07:50:58.531Z,116.47
2023-04-15T07:51:58.520Z,117.53
2023-04-15T07:52:58.528Z,119.14
2023-04-15T07:53:58.513Z,121.86
2023-04-15T07:54:58.531Z,124.66
2023-04-15T07:55:58.502Z,127.19
2023-04-15T07:56:58.668Z,129.83
2023-04-15T07:57:58.534Z,134.70
2023-04-15T07:58:58.620Z,137.91
2023-04-15T07:59:58.584Z,140.02
2023-04-15T08:00:58.594Z,142.43
2023-04-15T08:01:58.630Z,145.77
2023-04-15T08:02:58.789Z,147.59
2023-04-15T08:03:58.755Z,149.45
2023-04-15T08:04:58.687Z,155.69
2023-04-15T08:05:58.706Z,158.04
2023-04-15T08:06:58.718Z,159.82
2023-04-15T08:07:58.732Z,161.96
2023-04-15T08:08:58.817Z,165.16
2023-04-15T08:09:58.833Z,167.34
2023-04-15T08:10:58.914Z,169.18
2023-04-15T08:11:58.882Z,171.49
2023-04-15T08:12:59.270Z,174.12
2023-04-15T08:13:58.894Z,176.03
2023-04-15T08:14:58.873Z,180.40
2023-04-15T08:15:58.940Z,181.42
2023-04-15T08:16:58.866Z,189.81
2023-04-15T08:17:58.896Z,190.92
2023-04-15T08:18:58.933Z,191.10
2023-04-15T08:19:58.862Z,192.78
2023-04-15T08:20:58.867Z,195.17
2023-04-15T08:21:58.885Z,197.93
2023-04-15T08:22:58.943Z,200.22
2023-04-15T08:23:58.974Z,200.53
2023-04-15T08:24:58.970Z,201.25
2023-04-15T08:25:58.974Z,202.48
2023-04-15T08:26:59.001Z,204.75
2023-04-15T08:27:58.975Z,180.30
2023-04-15T08:28:59.006Z,158.20
2023-04-15T08:29:58.999Z,163.64
2023-04-15T08:30:59.019Z,172.72
2023-04-15T08:31:59.074Z,178.69
2023-04-15T08:32:59.102Z,178.99
2023-04-15T08:33:59.081Z,181.62
2023-04-15T08:34:59.093Z,178.66
2023-04-15T08:35:59.115Z,181.48
2023-04-15T08:36:59.122Z,181.10
2023-04-15T08:37:59.139Z,179.43
2023-04-15T08:38:59.159Z,180.66
2023-04-15T08:39:59.168Z,183.42
2023-04-15T08:40:59.178Z,184.20
2023-04-15T08:41:59.175Z,185.04
2023-04-15T08:42:59.208Z,185.87
2023-04-15T08:43:59.183Z,187.04
2023-04-15T08:44:59.212Z,187.88
2023-04-15T08:45:59.204Z,189.00
2023-04-15T08:46:59.293Z,189.68
2023-04-15T08:47:59.321Z,191.70
2023-04-15T08:48:59.274Z,192.72
2023-04-15T08:49:59.228Z,190.77
2023-04-15T08:50:59.291Z,189.81
2023-04-15T08:51:59.331Z,189.64
2023-04-15T08:52:59.400Z,192.60
2023-04-15T08:53:59.393Z,192.95
2023-04-15T08:54:59.393Z,193.75
2023-04-15T08:55:59.395Z,195.47
2023-04-15T08:56:59.405Z,197.24
2023-04-15T08:57:59.395Z,197.33
2023-04-15T08:58:59.469Z,198.96
2023-04-15T08:59:59.394Z,201.25
2023-04-15T09:00:59.434Z,201.52
2023-04-15T09:01:59.489Z,202.86
2023-04-15T09:02:59.535Z,203.76
2023-04-15T09:03:59.454Z,204.91
2023-04-15T09:04:59.523Z,206.98
2023-04-15T09:05:59.535Z,207.57
2023-04-15T09:06:59.553Z,209.70
2023-04-15T09:07:59.619Z,210.90
2023-04-15T09:08:59.875Z,211.75
2023-04-15T09:09:59.696Z,214.19
2023-04-15T09:10:59.737Z,215.19
2023-04-15T09:11:59.788Z,215.79
2023-04-15T09:12:59.834Z,216.90
2023-04-15T09:13:59.910Z,219.22
2023-04-15T09:14:59.983Z,220.71
2023-04-15T09:16:00.044Z,223.46
2023-04-15T09:17:00.131Z,224.63
2023-04-15T09:18:00.195Z,224.01
2023-04-15T09:19:00.383Z,225.81
2023-04-15T09:20:00.237Z,228.03
2023-04-15T09:21:00.296Z,228.89
2023-04-15T09:22:00.370Z,230.16
2023-04-15T09:23:00.406Z,231.84
2023-04-15T09:24:00.625Z,232.40
2023-04-15T09:25:00.527Z,233.24
2023-04-15T09:26:00.550Z,233.51
2023-04-15T09:27:00.617Z,235.21
2023-04-15T09:28:00.651Z,235.41
2023-04-15T09:29:00.703Z,238.07
2023-04-15T09:30:00.769Z,238.13
2023-04-15T09:31:00.896Z,240.85
2023-04-15T09:32:00.900Z,241.70
2023-04-15T09:33:00.998Z,243.18
2023-04-15T09:34:01.394Z,244.04
2023-04-15T09:35:01.085Z,244.54
2023-04-15T09:36:01.144Z,248.41
2023-04-15T09:37:01.197Z,249.55
2023-04-15T09:38:01.260Z,250.00
2023-04-15T09:39:01.389Z,250.00
2023-04-15T09:40:01.420Z,248.48
2023-04-15T09:41:01.451Z,247.73
2023-04-15T09:42:01.537Z,250.00
2023-04-15T09:43:01.564Z,247.52
2023-04-15T09:44:01.900Z,248.09
2023-04-15T09:45:01.652Z,248.27
2023-04-15T09:46:01.750Z,246.41
2023-04-15T09:47:01.716Z,243.27
2023-04-15T09:48:01.722Z,241.12
2023-04-15T09:49:01.701Z,237.11
2023-04-15T09:50:02.029Z,230.52
2023-04-15T09:51:01.839Z,221.96
2023-04-15T09:52:05.588Z,212.89
2023-04-15T09:53:01.914Z,212.33
2023-04-15T09:54:02.114Z,199.83
2023-04-15T09:55:02.019Z,194.41
2023-04-15T09:56:02.014Z,187.95
2023-04-15T09:57:02.018Z,181.24
2023-04-15T09:58:02.092Z,161.69
2023-04-15T09:59:02.066Z,160.71
2023-04-15T10:00:02.120Z,161.61
2023-04-15T10:01:02.176Z,163.63
2023-04-15T10:02:02.117Z,160.52
2023-04-15T10:03:02.349Z,153.68
2023-04-15T10:04:02.619Z,152.41
2023-04-15T10:05:02.126Z,146.31
2023-04-15T10:06:02.154Z,146.17
2023-04-15T10:07:02.147Z,150.02
2023-04-15T10:08:02.152Z,153.41
2023-04-15T10:09:02.169Z,154.71
2023-04-15T10:10:02.168Z,157.59
2023-04-15T10:11:02.234Z,160.58
2023-04-15T10:12:02.178Z,163.17
2023-04-15T10:13:02.228Z,165.70
2023-04-15T10:14:02.596Z,168.94
2023-04-15T10:15:02.307Z,169.05
2023-04-15T10:16:02.416Z,169.61
2023-04-15T10:17:02.298Z,170.67
2023-04-15T10:18:02.371Z,173.50
2023-04-15T10:19:02.332Z,174.64
2023-04-15T10:20:02.312Z,176.81
2023-04-15T10:21:02.417Z,177.77
2023-04-15T10:22:02.417Z,177.37
2023-04-15T10:23:02.458Z,180.64
2023-04-15T10:24:02.825Z,181.55
2023-04-15T10:25:02.489Z,182.13
2023-04-15T10:26:02.504Z,184.38
2023-04-15T10:27:02.530Z,185.57
2023-04-15T10:28:02.572Z,186.27
2023-04-15T10:29:02.603Z,187.46
2023-04-15T10:30:02.629Z,188.57
2023-04-15T10:31:02.708Z,191.89
2023-04-15T10:32:02.748Z,193.21
2023-04-15T10:33:02.813Z,194.63
2023-04-15T10:34:03.039Z,198.21
2023-04-15T10:35:02.842Z,196.81
2023-04-15T10:36:02.875Z,199.74
2023-04-15T10:37:02.923Z,205.84
2023-04-15T10:38:02.972Z,205.37
2023-04-15T10:39:03.023Z,205.52
2023-04-15T10:40:03.070Z,205.20
2023-04-15T10:41:03.119Z,207.20
2023-04-15T10:42:03.172Z,209.27
2023-04-15T10:43:03.301Z,210.23
2023-04-15T10:44:03.552Z,213.18
2023-04-15T10:45:03.356Z,214.98
2023-04-15T10:46:03.433Z,216.85
2023-04-15T10:47:03.493Z,218.98
2023-04-15T10:48:04.009Z,220.62
2023-04-15T10:49:03.620Z,224.11
2023-04-15T10:50:03.714Z,222.86
2023-04-15T10:51:03.775Z,222.59
2023-04-15T10:52:03.802Z,223.05
2023-04-15T10:53:03.880Z,223.83
2023-04-15T10:54:04.148Z,221.53
2023-04-15T10:55:03.985Z,219.78
2023-04-15T10:56:04.032Z,219.60
2023-04-15T10:57:04.061Z,216.58
2023-04-15T10:58:04.104Z,212.81
2023-04-15T10:59:04.130Z,211.12
2023-04-15T11:00:04.351Z,207.81
2023-04-15T11:01:04.160Z,205.83
2023-04-15T11:02:04.310Z,203.61
2023-04-15T11:03:04.268Z,203.63
2023-04-15T11:04:04.594Z,199.41
2023-04-15T11:05:04.208Z,198.49
2023-04-15T11:06:04.222Z,196.82
2023-04-15T11:07:04.273Z,196.02
2023-04-15T11:08:04.261Z,198.72
2023-04-15T11:09:04.250Z,197.67
2023-04-15T11:10:04.255Z,199.48
2023-04-15T11:11:04.267Z,198.93
2023-04-15T11:12:04.267Z,198.83
2023-04-15T11:13:04.266Z,198.46
2023-04-15T11:14:04.390Z,198.86
2023-04-15T11:15:04.268Z,199.67
2023-04-15T11:16:04.318Z,198.05
2023-04-15T11:17:04.278Z,197.94
2023-04-15T11:18:04.271Z,196.70
2023-04-15T11:19:04.252Z,196.25
2023-04-15T11:20:04.261Z,197.24
2023-04-15T11:21:04.261Z,196.17
2023-04-15T11:22:04.263Z,194.90
2023-04-15T11:23:14.510Z,195.24
2023-04-15T11:24:04.305Z,195.46
2023-04-15T11:25:04.240Z,196.24
2023-04-15T11:26:04.229Z,197.29
2023-04-15T11:27:04.220Z,197.66
2023-04-15T11:28:04.228Z,198.08
2023-04-15T11:29:04.445Z,198.98
2023-04-15T11:30:04.216Z,198.39
2023-04-15T11:31:04.205Z,199.74
2023-04-15T11:32:04.215Z,198.31
2023-04-15T11:33:04.230Z,198.59
2023-04-15T11:34:04.377Z,197.93
2023-04-15T11:35:04.195Z,198.05
2023-04-15T11:36:04.176Z,198.91
2023-04-15T11:37:04.177Z,200.08
2023-04-15T11:38:04.175Z,199.44
2023-04-15T11:39:04.175Z,199.78
2023-04-15T11:40:04.148Z,198.24
2023-04-15T11:41:04.145Z,198.48
2023-04-15T11:42:04.140Z,198.67
2023-04-15T11:43:04.129Z,198.91
2023-04-15T11:44:04.278Z,197.72
2023-04-15T11:45:04.108Z,197.93
2023-04-15T11:46:04.212Z,197.59
2023-04-15T11:47:04.099Z,197.27
2023-04-15T11:48:04.107Z,197.66
2023-04-15T11:49:04.082Z,198.48
2023-04-15T11:50:04.066Z,197.75
2023-04-15T11:51:04.077Z,198.13
2023-04-15T11:52:04.054Z,198.52
2023-04-15T11:53:06.280Z,197.42
2023-04-15T11:54:04.371Z,197.62
2023-04-15T11:55:04.067Z,197.76
2023-04-15T11:56:04.036Z,197.86
2023-04-15T11:57:04.019Z,198.44
2023-04-15T11:58:04.024Z,199.06
2023-04-15T11:59:04.013Z,198.39
2023-04-15T12:00:04.003Z,196.42
2023-04-15T12:01:03.987Z,198.94
2023-04-15T12:02:04.032Z,198.50
2023-04-15T12:03:04.174Z,198.62
2023-04-15T12:04:04.583Z,198.22
2023-04-15T12:05:04.079Z,199.55
2023-04-15T12:06:03.961Z,197.32
2023-04-15T12:07:03.947Z,198.53
2023-04-15T12:08:03.938Z,198.12
2023-04-15T12:09:03.942Z,198.77
2023-04-15T12:10:03.929Z,199.14
2023-04-15T12:11:03.947Z,198.65
2023-04-15T12:12:03.917Z,197.96
2023-04-15T12:13:03.903Z,197.67
2023-04-15T12:14:04.066Z,198.05
2023-04-15T12:15:03.893Z,195.86
2023-04-15T12:16:03.924Z,198.77
2023-04-15T12:17:03.881Z,198.63
2023-04-15T12:18:03.948Z,197.73
2023-04-15T12:19:03.897Z,199.42
2023-04-15T12:20:03.889Z,201.17
2023-04-15T12:21:03.878Z,198.06
2023-04-15T12:22:03.873Z,199.19
2023-04-15T12:23:03.869Z,198.33
2023-04-15T12:24:04.234Z,198.31
2023-04-15T12:25:03.873Z,200.35
2023-04-15T12:26:03.851Z,198.00
2023-04-15T12:27:03.866Z,197.01
2023-04-15T12:28:03.836Z,198.43
2023-04-15T12:29:03.832Z,196.69
2023-04-15T12:30:03.830Z,195.25
2023-04-15T12:31:03.834Z,197.01
2023-04-15T12:32:03.828Z,196.69
2023-04-15T12:33:03.848Z,197.84
2023-04-15T12:34:03.969Z,197.32
2023-04-15T12:35:03.795Z,197.64
2023-04-15T12:36:03.793Z,196.03
2023-04-15T12:37:03.810Z,196.89
2023-04-15T12:38:03.781Z,197.46
2023-04-15T12:39:03.780Z,196.13
2023-04-15T12:40:03.774Z,196.04
2023-04-15T12:41:03.782Z,195.70
2023-04-15T12:42:03.757Z,196.36